createdAt,value
2017-11-26T00:00:13.353Z,101290.13
2017-11-26T00:02:40.955Z,101289.22
2017-11-26T00:05:08.565Z,101289.31
2017-11-26T00:07:36.192Z,101288.38
2017-11-26T00:10:03.783Z,101285.44
2017-11-26T00:12:31.397Z,101286.25
2017-11-26T00:14:59.005Z,101286.03
2017-11-26T00:17:26.636Z,101290.52
2017-11-26T00:19:54.251Z,101284.59
2017-11-26T00:22:21.943Z,101284.80
2017-11-26T00:24:49.607Z,101283.80
2017-11-26T00:27:17.228Z,101296.53
2017-11-26T00:29:44.823Z,101294.41
2017-11-26T00:32:12.459Z,101301.16
2017-11-26T00:34:40.011Z,101294.73
2017-11-26T00:37:07.620Z,101295.85
2017-11-26T00:39:35.239Z,101301.16
2017-11-26T00:42:02.867Z,101302.69
2017-11-26T00:44:30.462Z,101304.60
2017-11-26T00:46:58.094Z,101303.81
2017-11-26T00:49:25.999Z,101308.00
2017-11-26T00:51:53.616Z,101308.30
2017-11-26T00:54:21.196Z,101305.95
2017-11-26T00:56:48.892Z,101312.46
2017-11-26T00:59:16.480Z,101312.67
2017-11-26T01:01:44.105Z,101319.10
2017-11-26T01:04:11.668Z,101326.36
2017-11-26T01:06:39.300Z,101326.16
2017-11-26T01:09:06.952Z,101328.92
2017-11-26T01:11:34.564Z,101324.21
2017-11-26T01:14:02.153Z,101323.72
2017-11-26T01:16:29.783Z,101334.11
2017-11-26T01:18:57.380Z,101331.16
2017-11-26T01:21:24.988Z,101328.92
2017-11-26T01:23:52.580Z,101325.37
2017-11-26T01:26:20.198Z,101326.91
2017-11-26T01:28:47.791Z,101332.20
2017-11-26T01:31:15.406Z,101334.23
2017-11-26T01:33:43.004Z,101338.42
2017-11-26T01:36:10.611Z,101332.11
2017-11-26T01:38:38.200Z,101338.01
2017-11-26T01:41:05.840Z,101336.79
2017-11-26T01:43:33.431Z,101334.25
2017-11-26T01:46:01.036Z,101341.99
2017-11-26T01:48:28.620Z,101331.59
2017-11-26T01:50:56.244Z,101331.59
2017-11-26T01:53:23.848Z,101337.09
2017-11-26T01:55:51.443Z,101324.95
2017-11-26T01:58:19.111Z,101333.43
2017-11-26T02:00:46.740Z,101329.94
2017-11-26T02:03:14.319Z,101327.91
2017-11-26T02:05:41.969Z,101332.00
2017-11-26T02:08:09.555Z,101334.23
2017-11-26T02:10:37.168Z,101334.45
2017-11-26T02:13:04.753Z,101335.88
2017-11-26T02:15:32.377Z,101338.33
2017-11-26T02:17:59.991Z,101341.08
2017-11-26T02:20:27.576Z,101346.39
2017-11-26T02:22:55.149Z,101349.04
2017-11-26T02:25:22.760Z,101351.69
2017-11-26T02:27:50.331Z,101353.54
2017-11-26T02:30:17.933Z,101355.35
2017-11-26T02:32:57.094Z,101346.91
2017-11-26T02:35:36.437Z,101359.05
2017-11-26T02:38:04.029Z,101351.17
2017-11-26T02:40:31.645Z,101354.45
2017-11-26T02:42:59.218Z,101364.25
2017-11-26T02:45:26.866Z,101363.73
2017-11-26T02:47:54.451Z,101363.41
2017-11-26T02:50:22.063Z,101365.57
2017-11-26T02:52:49.644Z,101365.47
2017-11-26T02:55:17.238Z,101363.83
2017-11-26T02:57:44.819Z,101373.32
2017-11-26T03:00:12.440Z,101374.02
2017-11-26T03:02:40.032Z,101377.78
2017-11-26T03:05:07.679Z,101381.66
2017-11-26T03:07:35.299Z,101376.18
2017-11-26T03:10:02.936Z,101378.83
2017-11-26T03:12:30.542Z,101381.38
2017-11-26T03:14:58.147Z,101383.51
2017-11-26T03:17:25.749Z,101381.97
2017-11-26T03:19:53.367Z,101374.33
2017-11-26T03:22:20.949Z,101377.58
2017-11-26T03:24:48.567Z,101377.47
2017-11-26T03:27:16.173Z,101381.17
2017-11-26T03:29:43.779Z,101381.66
2017-11-26T03:32:11.375Z,101384.62
2017-11-26T03:34:38.953Z,101379.95
2017-11-26T03:37:06.554Z,101386.75
2017-11-26T03:39:34.143Z,101382.49
2017-11-26T03:42:01.766Z,101386.16
2017-11-26T03:44:29.358Z,101375.97
2017-11-26T03:46:56.976Z,101372.69
2017-11-26T03:49:24.648Z,101365.74
2017-11-26T03:51:52.283Z,101381.66
2017-11-26T03:54:19.855Z,101376.88
2017-11-26T03:56:47.478Z,101379.84
2017-11-26T03:59:15.063Z,101378.73
2017-11-26T04:01:42.652Z,101376.56
2017-11-26T04:04:10.282Z,101380.33
2017-11-26T04:06:37.897Z,101382.18
2017-11-26T04:09:05.468Z,101382.87
2017-11-26T04:11:33.088Z,101389.52
2017-11-26T04:14:00.712Z,101386.27
2017-11-26T04:16:28.387Z,101384.31
2017-11-26T04:18:55.970Z,101384.03
2017-11-26T04:21:23.607Z,101385.25
2017-11-26T04:23:51.216Z,101382.28
2017-11-26T04:26:18.828Z,101386.68
2017-11-26T04:28:46.437Z,101382.87
2017-11-26T04:31:14.166Z,101381.55
2017-11-26T04:33:41.741Z,101385.14
2017-11-26T04:36:09.387Z,101382.87
2017-11-26T04:38:36.983Z,101382.08
2017-11-26T04:41:04.602Z,101374.23
2017-11-26T04:43:32.168Z,101372.09
2017-11-26T04:45:59.776Z,101372.91
2017-11-26T04:48:27.356Z,101372.69
2017-11-26T04:50:54.979Z,101368.41
2017-11-26T04:53:22.593Z,101379.32
2017-11-26T04:55:50.184Z,101375.97
2017-11-26T04:58:17.776Z,101372.91
2017-11-26T05:00:45.384Z,101375.45
2017-11-26T05:03:12.962Z,101375.97
2017-11-26T05:05:40.601Z,101379.63
2017-11-26T05:08:08.179Z,101381.86
2017-11-26T05:10:35.797Z,101377.88
2017-11-26T05:13:03.381Z,101384.34
2017-11-26T05:15:31.056Z,101381.78
2017-11-26T05:17:58.655Z,101382.80
2017-11-26T05:20:26.264Z,101390.44
2017-11-26T05:22:53.851Z,101380.64
2017-11-26T05:25:21.475Z,101382.59
2017-11-26T05:27:49.179Z,101390.55
2017-11-26T05:30:16.829Z,101376.59
2017-11-26T05:32:44.409Z,101383.80
2017-11-26T05:35:12.025Z,101385.66
2017-11-26T05:37:39.620Z,101381.16
2017-11-26T05:40:07.244Z,101389.52
2017-11-26T05:42:34.940Z,101386.77
2017-11-26T05:45:02.552Z,101389.00
2017-11-26T05:47:30.138Z,101385.44
2017-11-26T05:49:57.765Z,101390.84
2017-11-26T05:52:25.341Z,101387.67
2017-11-26T05:54:52.943Z,101393.39
2017-11-26T05:57:20.581Z,101390.95
2017-11-26T05:59:48.209Z,101392.97
2017-11-26T06:02:15.816Z,101394.19
2017-11-26T06:04:43.415Z,101401.23
2017-11-26T06:07:10.996Z,101413.78
2017-11-26T06:09:38.639Z,101397.89
2017-11-26T06:12:06.230Z,101405.00
2017-11-26T06:14:33.840Z,101390.33
2017-11-26T06:17:01.437Z,101393.50
2017-11-26T06:19:29.060Z,101399.11
2017-11-26T06:21:56.665Z,101391.44
2017-11-26T06:24:24.264Z,101395.84
2017-11-26T06:26:51.855Z,101402.36
2017-11-26T06:29:19.456Z,101397.16
2017-11-26T06:31:47.049Z,101393.91
2017-11-26T06:34:14.671Z,101401.87
2017-11-26T06:36:42.247Z,101398.38
2017-11-26T06:39:09.849Z,101397.96
2017-11-26T06:41:37.454Z,101406.02
2017-11-26T06:44:05.053Z,101414.49
2017-11-26T06:46:32.644Z,101417.36
2017-11-26T06:49:00.259Z,101424.78
2017-11-26T06:51:27.832Z,101420.11
2017-11-26T06:53:55.452Z,101418.47
2017-11-26T06:56:23.040Z,101426.02
2017-11-26T06:58:50.680Z,101426.92
2017-11-26T07:01:18.416Z,101422.35
2017-11-26T07:03:46.033Z,101423.78
2017-11-26T07:06:13.648Z,101433.06
2017-11-26T07:08:41.363Z,101435.92
2017-11-26T07:11:08.955Z,101441.02
2017-11-26T07:13:36.579Z,101439.28
2017-11-26T07:16:04.169Z,101440.09
2017-11-26T07:18:31.770Z,101439.91
2017-11-26T07:20:59.352Z,101440.09
2017-11-26T07:23:26.983Z,101450.91
2017-11-26T07:25:54.576Z,101447.45
2017-11-26T07:28:22.251Z,101449.38
2017-11-26T07:30:49.820Z,101457.55
2017-11-26T07:33:17.437Z,101448.27
2017-11-26T07:35:45.024Z,101457.33
2017-11-26T07:38:12.647Z,101456.31
2017-11-26T07:40:40.239Z,101463.86
2017-11-26T07:43:07.863Z,101465.00
2017-11-26T07:45:35.455Z,101462.74
2017-11-26T07:48:03.183Z,101477.13
2017-11-26T07:50:30.769Z,101473.04
2017-11-26T07:52:58.384Z,101479.39
2017-11-26T07:55:26.010Z,101476.22
2017-11-26T07:57:53.632Z,101481.21
2017-11-26T08:00:21.211Z,101484.70
2017-11-26T08:02:48.822Z,101482.86
2017-11-26T08:05:16.609Z,101487.44
2017-11-26T08:07:45.270Z,101491.30
2017-11-26T08:10:12.884Z,101485.93
2017-11-26T08:12:40.556Z,101492.84
2017-11-26T08:15:08.132Z,101490.09
2017-11-26T08:17:35.749Z,101495.11
2017-11-26T08:20:03.440Z,101498.89
2017-11-26T08:22:31.075Z,101503.78
2017-11-26T08:24:58.682Z,101509.30
2017-11-26T08:27:26.609Z,101506.12
2017-11-26T08:29:54.252Z,101509.50
2017-11-26T08:32:21.881Z,101508.46
2017-11-26T08:34:49.469Z,101512.55
2017-11-26T08:37:17.116Z,101506.54
2017-11-26T08:39:44.724Z,101515.61
2017-11-26T08:42:12.329Z,101511.53
2017-11-26T08:44:39.941Z,101510.84
2017-11-26T08:47:07.561Z,101512.34
2017-11-26T08:49:35.242Z,101514.71
2017-11-26T08:52:02.863Z,101514.78
2017-11-26T08:54:30.456Z,101513.08
2017-11-26T08:56:58.084Z,101517.37
2017-11-26T08:59:25.682Z,101521.03
2017-11-26T09:01:53.307Z,101526.73
2017-11-26T09:04:20.888Z,101517.23
2017-11-26T09:06:51.376Z,101526.62
2017-11-26T09:09:18.965Z,101521.84
2017-11-26T09:11:46.599Z,101528.06
2017-11-26T09:14:14.242Z,101530.61
2017-11-26T09:16:41.859Z,101533.47
2017-11-26T09:19:09.525Z,101535.71
2017-11-26T09:21:37.147Z,101532.88
2017-11-26T09:24:04.759Z,101538.99
2017-11-26T09:26:32.376Z,101539.20
2017-11-26T09:28:59.981Z,101534.20
2017-11-26T09:31:27.600Z,101537.77
2017-11-26T09:33:55.200Z,101549.09
2017-11-26T09:36:22.837Z,101545.73
2017-11-26T09:38:50.422Z,101542.34
2017-11-26T09:41:18.048Z,101547.86
2017-11-26T09:43:45.644Z,101545.42
2017-11-26T09:46:13.257Z,101545.73
2017-11-26T09:48:40.853Z,101552.27
2017-11-26T09:51:08.483Z,101550.52
2017-11-26T09:53:36.107Z,101562.29
2017-11-26T09:56:03.734Z,101557.09
2017-11-26T09:58:31.317Z,101561.38
2017-11-26T10:00:58.928Z,101555.97
2017-11-26T10:03:26.664Z,101559.31
2017-11-26T10:05:54.294Z,101551.07
2017-11-26T10:08:21.922Z,101551.56
2017-11-26T10:10:49.540Z,101555.02
2017-11-26T10:13:17.127Z,101560.44
2017-11-26T10:15:44.798Z,101560.05
2017-11-26T10:18:12.385Z,101562.28
2017-11-26T10:20:40.065Z,101560.43
2017-11-26T10:23:07.668Z,101554.63
2017-11-26T10:25:35.312Z,101558.19
2017-11-26T10:28:02.891Z,101554.63
2017-11-26T10:30:30.517Z,101560.03
2017-11-26T10:32:58.180Z,101568.70
2017-11-26T10:35:25.747Z,101565.94
2017-11-26T10:37:53.408Z,101563.70
2017-11-26T10:40:21.053Z,101558.77
2017-11-26T10:42:48.667Z,101557.86
2017-11-26T10:45:16.262Z,101561.74
2017-11-26T10:47:43.895Z,101575.75
2017-11-26T10:50:11.480Z,101568.16
2017-11-26T10:52:39.063Z,101563.08
2017-11-26T10:55:06.671Z,101573.81
2017-11-26T10:57:34.331Z,101558.02
2017-11-26T11:00:01.936Z,101565.92
2017-11-26T11:02:29.522Z,101564.22
2017-11-26T11:04:57.128Z,101566.18
2017-11-26T11:07:24.715Z,101565.69
2017-11-26T11:09:52.475Z,101575.69
2017-11-26T11:12:20.108Z,101564.27
2017-11-26T11:14:47.716Z,101561.39
2017-11-26T11:17:15.304Z,101572.87
2017-11-26T11:19:42.923Z,101575.42
2017-11-26T11:22:10.511Z,101572.45
2017-11-26T11:24:38.125Z,101564.06
2017-11-26T11:27:05.708Z,101567.45
2017-11-26T11:29:33.323Z,101569.98
2017-11-26T11:32:00.924Z,101575.69
2017-11-26T11:34:28.587Z,101580.09
2017-11-26T11:36:56.204Z,101574.67
2017-11-26T11:39:23.826Z,101568.92
2017-11-26T11:41:51.398Z,101572.22
2017-11-26T11:44:19.097Z,101577.22
2017-11-26T11:46:46.688Z,101580.39
2017-11-26T11:49:14.315Z,101572.63
2017-11-26T11:51:41.900Z,101587.42
2017-11-26T11:54:09.519Z,101590.30
2017-11-26T11:56:37.129Z,101602.37
2017-11-26T11:59:04.753Z,101588.97
2017-11-26T12:01:32.333Z,101587.41
2017-11-26T12:03:59.957Z,101571.19
2017-11-26T12:06:27.559Z,101580.81
2017-11-26T12:08:55.172Z,101588.92
2017-11-26T12:11:22.796Z,101579.31
2017-11-26T12:13:50.484Z,101579.73
2017-11-26T12:16:18.087Z,101585.36
2017-11-26T12:18:45.742Z,101589.25
2017-11-26T12:21:13.361Z,101583.93
2017-11-26T12:23:40.953Z,101584.53
2017-11-26T12:26:08.561Z,101592.10
2017-11-26T12:28:36.137Z,101586.59
2017-11-26T12:31:03.776Z,101587.30
2017-11-26T12:33:31.376Z,101597.54
2017-11-26T12:35:58.981Z,101588.51
2017-11-26T12:38:26.593Z,101590.02
2017-11-26T12:40:54.170Z,101595.87
2017-11-26T12:43:21.823Z,101592.80
2017-11-26T12:45:49.464Z,101599.34
2017-11-26T12:48:17.061Z,101605.89
2017-11-26T12:50:44.665Z,101591.27
2017-11-26T12:53:12.286Z,101593.81
2017-11-26T12:55:39.916Z,101595.25
2017-11-26T12:58:07.509Z,101606.08
2017-11-26T13:00:35.202Z,101606.99
2017-11-26T13:03:02.796Z,101592.14
2017-11-26T13:05:30.420Z,101598.67
2017-11-26T13:07:58.043Z,101600.65
2017-11-26T13:10:25.800Z,101601.16
2017-11-26T13:12:53.631Z,101599.63
2017-11-26T13:15:21.247Z,101598.09
2017-11-26T13:17:48.857Z,101598.52
2017-11-26T13:20:16.465Z,101590.13
2017-11-26T13:22:44.061Z,101593.20
2017-11-26T13:25:12.624Z,101598.29
2017-11-26T13:27:40.212Z,101595.84
2017-11-26T13:30:07.845Z,101598.38
2017-11-26T13:32:35.443Z,101607.86
2017-11-26T13:35:03.065Z,101612.99
2017-11-26T13:37:30.657Z,101619.64
2017-11-26T13:39:58.376Z,101620.36
2017-11-26T13:42:25.952Z,101621.38
2017-11-26T13:44:53.583Z,101614.86
2017-11-26T13:47:21.161Z,101615.28
2017-11-26T13:49:48.899Z,101618.47
2017-11-26T13:52:16.486Z,101611.41
2017-11-26T13:54:44.307Z,101622.03
2017-11-26T13:57:11.911Z,101616.41
2017-11-26T13:59:39.573Z,101633.91
2017-11-26T14:02:07.151Z,101614.88
2017-11-26T14:04:34.768Z,101619.58
2017-11-26T14:07:02.376Z,101621.61
2017-11-26T14:09:30.005Z,101612.82
2017-11-26T14:11:57.603Z,101619.96
2017-11-26T14:14:25.281Z,101625.16
2017-11-26T14:16:52.855Z,101618.23
2017-11-26T14:19:20.511Z,101621.09
2017-11-26T14:21:48.195Z,101628.34
2017-11-26T14:24:15.822Z,101629.06
2017-11-26T14:26:43.495Z,101630.47
2017-11-26T14:29:11.152Z,101634.77
2017-11-26T14:31:38.740Z,101644.08
2017-11-26T14:34:06.356Z,101641.94
2017-11-26T14:36:33.976Z,101645.61
2017-11-26T14:39:01.596Z,101647.23
2017-11-26T14:41:29.167Z,101649.80
2017-11-26T14:43:56.760Z,101656.59
2017-11-26T14:46:24.468Z,101657.34
2017-11-26T14:48:52.454Z,101646.17
2017-11-26T14:51:20.312Z,101659.91
2017-11-26T14:53:48.083Z,101671.09
2017-11-26T14:56:15.673Z,101662.59
2017-11-26T14:58:43.299Z,101660.15
2017-11-26T15:01:10.879Z,101663.66
2017-11-26T15:03:38.502Z,101665.05
2017-11-26T15:06:06.095Z,101659.73
2017-11-26T15:08:33.718Z,101668.13
2017-11-26T15:11:01.343Z,101665.56
2017-11-26T15:13:28.979Z,101662.11
2017-11-26T15:15:56.673Z,101658.94
2017-11-26T15:18:24.327Z,101668.14
2017-11-26T15:20:52.680Z,101662.92
2017-11-26T15:23:20.420Z,101666.70
2017-11-26T15:25:48.021Z,101665.37
2017-11-26T15:28:15.673Z,101668.24
2017-11-26T15:30:43.338Z,101668.66
2017-11-26T15:33:10.968Z,101673.45
2017-11-26T15:35:38.569Z,101671.31
2017-11-26T15:38:06.240Z,101665.80
2017-11-26T15:40:33.862Z,101669.58
2017-11-26T15:43:01.564Z,101669.79
2017-11-26T15:45:29.177Z,101672.97
2017-11-26T15:47:56.897Z,101676.85
2017-11-26T15:50:24.616Z,101675.84
2017-11-26T15:52:52.228Z,101677.77
2017-11-26T15:55:19.847Z,101681.06
2017-11-26T15:57:49.159Z,101683.41
2017-11-26T16:00:23.435Z,101678.51
2017-11-26T16:02:51.131Z,101684.63
2017-11-26T16:05:18.770Z,101683.09
2017-11-26T16:07:46.390Z,101688.83
2017-11-26T16:10:13.995Z,101683.73
2017-11-26T16:12:41.627Z,101691.91
2017-11-26T16:15:09.229Z,101685.27
2017-11-26T16:17:36.867Z,101689.75
2017-11-26T16:20:04.463Z,101684.05
2017-11-26T16:22:32.113Z,101686.39
2017-11-26T16:24:59.703Z,101690.91
2017-11-26T16:27:27.334Z,101687.20
2017-11-26T16:29:55.213Z,101692.13
2017-11-26T16:32:22.865Z,101691.08
2017-11-26T16:34:50.463Z,101694.05
2017-11-26T16:37:18.190Z,101691.50
2017-11-26T16:39:45.791Z,101691.60
2017-11-26T16:42:13.410Z,101695.48
2017-11-26T16:44:40.998Z,101699.58
2017-11-26T16:47:08.644Z,101698.04
2017-11-26T16:49:36.339Z,101702.23
2017-11-26T16:52:03.973Z,101702.97
2017-11-26T16:54:31.585Z,101705.93
2017-11-26T16:56:59.180Z,101693.45
2017-11-26T16:59:26.790Z,101705.20
2017-11-26T17:01:54.375Z,101712.05
2017-11-26T17:04:21.987Z,101713.80
2017-11-26T17:06:49.666Z,101723.30
2017-11-26T17:09:17.282Z,101722.36
2017-11-26T17:11:44.856Z,101727.67
2017-11-26T17:14:12.487Z,101731.66
2017-11-26T17:16:40.118Z,101735.33
2017-11-26T17:19:07.742Z,101733.83
2017-11-26T17:21:35.396Z,101738.20
2017-11-26T17:24:02.963Z,101737.72
2017-11-26T17:26:30.660Z,101740.27
2017-11-26T17:28:58.413Z,101747.81
2017-11-26T17:31:26.128Z,101747.11
2017-11-26T17:33:53.829Z,101752.00
2017-11-26T17:36:21.478Z,101745.97
2017-11-26T17:38:49.092Z,101747.70
2017-11-26T17:41:16.733Z,101748.02
2017-11-26T17:43:44.324Z,101746.27
2017-11-26T17:46:11.973Z,101754.44
2017-11-26T17:48:39.574Z,101751.19
2017-11-26T17:51:07.204Z,101749.02
2017-11-26T17:53:34.794Z,101751.08
2017-11-26T17:56:02.423Z,101756.38
2017-11-26T17:58:30.092Z,101758.40
2017-11-26T18:00:57.711Z,101763.31
2017-11-26T18:03:25.287Z,101765.55
2017-11-26T18:05:52.960Z,101772.72
2017-11-26T18:08:20.561Z,101777.61
2017-11-26T18:10:48.178Z,101776.39
2017-11-26T18:13:15.849Z,101778.95
2017-11-26T18:15:43.480Z,101775.56
2017-11-26T18:18:11.131Z,101780.67
2017-11-26T18:20:38.930Z,101777.31
2017-11-26T18:23:06.515Z,101776.20
2017-11-26T18:25:34.380Z,101779.55
2017-11-26T18:28:01.970Z,101776.68
2017-11-26T18:30:29.589Z,101780.66
2017-11-26T18:32:57.229Z,101780.40
2017-11-26T18:35:24.892Z,101780.40
2017-11-26T18:37:52.549Z,101774.56
2017-11-26T18:40:20.322Z,101782.63
2017-11-26T18:42:47.935Z,101786.62
2017-11-26T18:45:15.617Z,101786.94
2017-11-26T18:47:43.231Z,101788.38
2017-11-26T18:50:10.949Z,101788.56
2017-11-26T18:52:38.543Z,101782.23
2017-11-26T18:55:06.199Z,101788.55
2017-11-26T18:57:33.847Z,101787.74
2017-11-26T19:00:01.615Z,101790.61
2017-11-26T19:02:29.393Z,101788.27
2017-11-26T19:04:58.063Z,101785.91
2017-11-26T19:07:25.723Z,101788.25
2017-11-26T19:09:53.416Z,101787.93
2017-11-26T19:12:21.028Z,101782.09
2017-11-26T19:14:48.740Z,101788.13
2017-11-26T19:17:16.366Z,101790.58
2017-11-26T19:19:44.033Z,101790.26
2017-11-26T19:22:11.624Z,101799.45
2017-11-26T19:24:39.254Z,101791.20
2017-11-26T19:27:06.828Z,101794.77
2017-11-26T19:29:34.539Z,101792.52
2017-11-26T19:32:02.137Z,101791.47
2017-11-26T19:34:29.905Z,101800.58
2017-11-26T19:36:57.627Z,101798.83
2017-11-26T19:39:25.285Z,101797.15
2017-11-26T19:41:52.939Z,101794.05
2017-11-26T19:44:20.631Z,101788.48
2017-11-26T19:46:48.236Z,101800.63
2017-11-26T19:49:15.918Z,101794.27
2017-11-26T19:51:43.561Z,101791.12
2017-11-26T19:54:11.284Z,101793.88
2017-11-26T19:56:38.949Z,101788.35
2017-11-26T19:59:06.672Z,101801.73
2017-11-26T20:01:34.274Z,101798.88
2017-11-26T20:04:01.981Z,101793.46
2017-11-26T20:06:29.615Z,101786.82
2017-11-26T20:08:57.297Z,101790.27
2017-11-26T20:11:25.011Z,101785.28
2017-11-26T20:13:52.789Z,101792.84
2017-11-26T20:16:20.456Z,101793.23
2017-11-26T20:18:48.096Z,101783.14
2017-11-26T20:21:15.783Z,101793.36
2017-11-26T20:23:43.489Z,101797.14
2017-11-26T20:26:14.981Z,101786.14
2017-11-26T20:28:42.632Z,101788.42
2017-11-26T20:31:10.297Z,101783.72
2017-11-26T20:33:37.953Z,101786.27
2017-11-26T20:36:05.624Z,101789.46
2017-11-26T20:38:33.296Z,101793.77
2017-11-26T20:41:00.904Z,101788.64
2017-11-26T20:43:28.616Z,101795.01
2017-11-26T20:45:56.229Z,101785.52
2017-11-26T20:48:23.850Z,101789.89
2017-11-26T20:50:51.514Z,101794.51
2017-11-26T20:53:19.160Z,101784.80
2017-11-26T20:55:46.831Z,101792.07
2017-11-26T20:58:14.597Z,101795.11
2017-11-26T21:00:42.201Z,101792.56
2017-11-26T21:03:09.826Z,101798.61
2017-11-26T21:05:37.421Z,101799.42
2017-11-26T21:08:05.048Z,101800.54
2017-11-26T21:10:32.755Z,101806.80
2017-11-26T21:13:00.421Z,101803.76
2017-11-26T21:15:28.225Z,101805.89
2017-11-26T21:17:55.835Z,101794.66
2017-11-26T21:20:23.490Z,101796.58
2017-11-26T21:22:51.133Z,101796.78
2017-11-26T21:25:18.736Z,101796.78
2017-11-26T21:27:46.381Z,101794.83
2017-11-26T21:30:13.996Z,101793.91
2017-11-26T21:32:41.661Z,101791.05
2017-11-26T21:35:09.532Z,101784.12
2017-11-26T21:37:37.359Z,101787.36
2017-11-26T21:40:04.952Z,101788.59
2017-11-26T21:42:32.594Z,101790.92
2017-11-26T21:45:00.192Z,101788.89
2017-11-26T21:47:27.809Z,101787.56
2017-11-26T21:49:55.426Z,101782.98
2017-11-26T21:52:23.053Z,101782.87
2017-11-26T21:54:50.643Z,101780.80
2017-11-26T21:57:18.268Z,101780.71
2017-11-26T21:59:45.893Z,101786.86
2017-11-26T22:02:13.521Z,101783.14
2017-11-26T22:04:41.113Z,101790.11
2017-11-26T22:07:08.827Z,101783.67
2017-11-26T22:09:36.436Z,101782.13
2017-11-26T22:12:04.058Z,101790.95
2017-11-26T22:14:31.669Z,101788.78
2017-11-26T22:16:59.292Z,101785.13
2017-11-26T22:19:26.888Z,101782.67
2017-11-26T22:21:54.554Z,101782.77
2017-11-26T22:24:22.143Z,101786.66
2017-11-26T22:26:49.763Z,101787.57
2017-11-26T22:29:17.351Z,101786.24
2017-11-26T22:31:44.977Z,101791.24
2017-11-26T22:34:12.567Z,101796.66
2017-11-26T22:36:40.212Z,101792.77
2017-11-26T22:39:07.808Z,101793.78
2017-11-26T22:41:35.509Z,101800.41
2017-11-26T22:44:03.183Z,101800.34
2017-11-26T22:46:30.951Z,101806.47
2017-11-26T22:48:58.540Z,101798.50
2017-11-26T22:51:26.157Z,101795.42
2017-11-26T22:53:53.744Z,101790.63
2017-11-26T22:56:21.363Z,101795.94
2017-11-26T22:58:48.990Z,101789.78
2017-11-26T23:01:16.627Z,101791.83
2017-11-26T23:03:44.201Z,101795.21
2017-11-26T23:06:11.840Z,101795.80
2017-11-26T23:08:39.451Z,101787.42
2017-11-26T23:11:07.080Z,101798.88
2017-11-26T23:13:34.692Z,101791.02
2017-11-26T23:16:02.364Z,101794.89
2017-11-26T23:18:29.973Z,101791.61
2017-11-26T23:20:57.603Z,101789.96
2017-11-26T23:23:25.205Z,101788.04
2017-11-26T23:25:52.817Z,101785.38
2017-11-26T23:28:20.412Z,101777.61
2017-11-26T23:30:48.035Z,101776.39
2017-11-26T23:33:15.624Z,101780.87
2017-11-26T23:35:43.253Z,101775.87
2017-11-26T23:38:10.833Z,101779.76
2017-11-26T23:40:38.454Z,101783.73
2017-11-26T23:43:06.036Z,101776.97
2017-11-26T23:45:33.656Z,101773.00
2017-11-26T23:48:01.245Z,101778.40
2017-11-26T23:50:28.987Z,101771.55
2017-11-26T23:52:56.582Z,101777.06
2017-11-26T23:55:24.192Z,101766.50
2017-11-26T23:57:51.821Z,101766.28
